»·PEaware :: N2442P KPRB-KMRY

N2442P :: KPRB-KMRY

FLIGHT INFORMATION

Flight Status: Arrived
Operator: Privately registered:
United States
More flights under this callsign
Pilot: Ken Q. (14290)
Aircraft: MOONEY M-20K/M ENCORE BRAVO
(M20T)
More flights by this aircraft type
Origin: KPRB Paso Robles Mun
United States
Destination: KMRY Monterey Peninsula
United States
More flights between these airports :: More routes between these airports
Route: KPRB Q98 UAD KMRY
File this flight plan on PilotEdge
Remarks: X
Altitude:
(Current/Filed)
6,500ft
Speed:
(Current/Filed)
165kts
Departed: 03-Oct-19 01:25 PM
Arrived: 03-Oct-19 02:05 PM
Distance/Time
Traveled:
1nm/0:39
Distance/Time
To Go:
Arrived

Flight Plot

Page will automatically refresh every two minutes.

Flight plan parsing failed; only flown route is shown


Map Options




Map Legend


Flown Route
Filed Route
Departure Airport
Arrival Airport
Navaid (VOR, NDB)
Fix

Horizontal Profiles

Position Reports

Time Latitude Longitude Heading Altitude Ground
Speed
03-Oct-19 12:59 35.672147 -120.637525 182 839ft 0kts
03-Oct-19 13:00 35.672147 -120.637525 182 839ft 0kts
03-Oct-19 13:01 35.672147 -120.637525 182 839ft 0kts
03-Oct-19 13:02 35.672147 -120.637525 182 839ft 0kts
03-Oct-19 13:03 35.672147 -120.637525 182 839ft 0kts
03-Oct-19 13:04 35.672147 -120.637525 182 839ft 0kts
03-Oct-19 13:05 35.672147 -120.637525 182 839ft 0kts
03-Oct-19 13:06 35.672147 -120.637525 182 839ft 0kts
03-Oct-19 13:07 35.672147 -120.637525 182 839ft 0kts
03-Oct-19 13:08 35.672147 -120.637525 182 839ft 0kts
03-Oct-19 13:09 35.672147 -120.637525 182 839ft 0kts
03-Oct-19 13:10 35.672147 -120.637525 182 839ft 0kts
03-Oct-19 13:11 35.672147 -120.637525 182 839ft 0kts
03-Oct-19 13:12 35.672147 -120.637525 182 839ft 0kts
03-Oct-19 13:13 35.672146 -120.637525 182 839ft 0kts
03-Oct-19 13:14 35.672146 -120.637525 182 839ft 0kts
03-Oct-19 13:15 35.672068 -120.637487 133 839ft 3kts
03-Oct-19 13:17 35.673077 -120.637230 358 839ft 3kts
03-Oct-19 13:18 35.673829 -120.636526 87 839ft 5kts
03-Oct-19 13:19 35.673911 -120.632400 86 839ft 2kts
03-Oct-19 13:20 35.677061 -120.629822 28 839ft 21kts
03-Oct-19 13:21 35.680509 -120.627714 253 839ft 0kts
03-Oct-19 13:22 35.680507 -120.627721 252 839ft 0kts
03-Oct-19 13:23 35.680595 -120.627696 104 839ft 0kts
03-Oct-19 13:24 35.680605 -120.626847 78 839ft 1kts
03-Oct-19 13:25 35.673176 -120.630954 205 865ft 80kts
03-Oct-19 13:26 35.651533 -120.627676 69 1351ft 120kts
03-Oct-19 13:27 35.682576 -120.612835 327 1841ft 134kts
03-Oct-19 13:28 35.710942 -120.644059 317 2323ft 139kts
03-Oct-19 13:29 35.739654 -120.675073 317 2773ft 134kts
03-Oct-19 13:30 35.767984 -120.705343 319 3219ft 136kts
03-Oct-19 13:31 35.798529 -120.734935 323 3695ft 143kts
03-Oct-19 13:32 35.830998 -120.762997 325 4153ft 140kts
03-Oct-19 13:33 35.863400 -120.790478 324 4662ft 142kts
03-Oct-19 13:34 35.896151 -120.817865 325 5157ft 142kts
03-Oct-19 13:35 35.930742 -120.842448 328 5664ft 145kts
03-Oct-19 13:35 35.960340 -120.862915 328 6085ft 148kts
03-Oct-19 13:37 36.003107 -120.892261 328 6511ft 159kts
03-Oct-19 13:37 36.033071 -120.917908 312 6513ft 171kts
03-Oct-19 13:39 36.071249 -120.965325 312 6512ft 172kts
03-Oct-19 13:40 36.105148 -121.007399 312 6512ft 173kts
03-Oct-19 13:40 36.133566 -121.042710 313 6520ft 174kts
03-Oct-19 13:41 36.168054 -121.084223 313 6524ft 171kts
03-Oct-19 13:43 36.208329 -121.132684 313 6427ft 174kts
03-Oct-19 13:43 36.237066 -121.167304 313 6432ft 172kts
03-Oct-19 13:44 36.271591 -121.208651 314 6065ft 174kts
03-Oct-19 13:45 36.306425 -121.249591 314 5560ft 170kts
03-Oct-19 13:46 36.339448 -121.289191 314 5060ft 162kts
03-Oct-19 13:47 36.371055 -121.327792 314 4554ft 156kts
03-Oct-19 13:48 36.402457 -121.364123 316 4056ft 152kts
03-Oct-19 13:49 36.431888 -121.398485 316 3547ft 141kts
03-Oct-19 13:50 36.457621 -121.429370 316 3447ft 117kts
03-Oct-19 13:51 36.480521 -121.457594 316 3202ft 122kts
03-Oct-19 13:52 36.502815 -121.485645 312 2802ft 124kts
03-Oct-19 13:53 36.524203 -121.515167 312 2756ft 109kts
03-Oct-19 13:54 36.544427 -121.542308 312 2695ft 110kts
03-Oct-19 13:55 36.567577 -121.574769 304 2030ft 134kts
03-Oct-19 13:56 36.584861 -121.614095 291 1758ft 119kts
03-Oct-19 13:57 36.594037 -121.650402 285 1760ft 101kts
03-Oct-19 13:58 36.599803 -121.681872 285 1681ft 92kts
03-Oct-19 13:59 36.603995 -121.711940 278 1655ft 81kts
03-Oct-19 14:00 36.599608 -121.740273 250 1525ft 91kts
03-Oct-19 14:01 36.589437 -121.769538 243 1278ft 95kts
03-Oct-19 14:02 36.579998 -121.798677 259 858ft 86kts
03-Oct-19 14:03 36.580512 -121.825428 291 408ft 69kts
03-Oct-19 14:04 36.586506 -121.843054 295 208ft 27kts
03-Oct-19 14:05 36.586874 -121.846048 243 208ft 3kts
03-Oct-19 14:06 36.588351 -121.850803 292 208ft 18kts
03-Oct-19 14:07 36.588862 -121.854006 215 208ft 1kts
03-Oct-19 14:08 36.588851 -121.854017 217 208ft 0kts
03-Oct-19 14:09 35.672147 -120.637525 182 839ft 0kts
03-Oct-19 14:10 35.672147 -120.637525 182 839ft 0kts
03-Oct-19 14:11 35.672147 -120.637525 182 839ft 0kts

Navigation Log

Ident Type
Flight plan parsing failed, navigation log unavailable